Time;durP1;ratioP1;P1;durP2;ratioP2;P2;SDS_P1;SDS_P2;PMS_P1;PMS_P2;Temp;Humidity;BMP_temperature;BMP_pressure;BME280_temperature;BME280_humidity;BME280_pressure;Samples;Min_cycle;Max_cycle;Signal;HPM_P1;HPM_P2
2021/12/14 00:01:30;;;;;;;13.90;2.63;;;24.00;99.90;;;;;;5069634;28;20282;-70
2021/12/14 00:04:02;;;;;;;10.50;2.60;;;23.60;99.90;;;;;;5066786;28;20253;-70
2021/12/14 00:06:30;;;;;;;10.43;2.17;;;23.70;99.90;;;;;;5070585;28;20215;-69
2021/12/14 00:09:00;;;;;;;12.43;2.20;;;24.10;99.90;;;;;;5070844;28;20172;-72
2021/12/14 00:12:06;;;;;;;10.83;3.07;;;24.20;99.90;;;;;;5069898;28;20183;-71
2021/12/14 00:17:26;;;;;;;10.47;2.90;;;24.30;99.90;;;;;;5065118;28;20274;-68
2021/12/14 00:19:57;;;;;;;14.33;3.03;;;24.20;99.90;;;;;;5070917;28;20187;-69
2021/12/14 00:24:05;;;;;;;9.73;3.07;;;24.50;99.90;;;;;;5070217;28;20167;-68
2021/12/14 00:25:18;;;;;;;11.27;2.90;;;24.70;99.90;;;;;;5070597;28;20223;-69
2021/12/14 00:27:45;;;;;;;18.60;3.17;;;24.70;99.90;;;;;;5070302;28;20167;-70
2021/12/14 00:30:13;;;;;;;16.70;4.10;;;25.00;99.90;;;;;;5070462;28;20191;-69
2021/12/14 00:32:40;;;;;;;10.50;2.87;;;24.80;99.90;;;;;;5070459;28;20544;-69
2021/12/14 00:35:13;;;;;;;16.07;2.53;;;24.80;99.90;;;;;;5073666;28;20212;-70
2021/12/14 00:37:47;;;;;;;12.43;2.50;;;24.90;99.90;;;;;;5073769;28;20887;-70
2021/12/14 00:40:20;;;;;;;11.90;3.60;;;24.50;99.90;;;;;;5066202;28;20187;-69
2021/12/14 00:42:48;;;;;;;16.70;3.30;;;24.50;99.90;;;;;;5070964;28;20252;-70
2021/12/14 00:45:17;;;;;;;9.97;2.17;;;24.70;99.90;;;;;;5073042;28;20222;-68
2021/12/14 00:47:45;;;;;;;13.07;3.00;;;24.70;99.90;;;;;;5072395;28;20237;-70
2021/12/14 00:50:13;;;;;;;16.93;3.00;;;25.00;99.90;;;;;;5068585;28;20187;-70
2021/12/14 00:52:42;;;;;;;11.77;2.93;;;25.00;99.90;;;;;;5072848;28;20637;-70
2021/12/14 00:55:12;;;;;;;9.07;2.70;;;25.10;99.90;;;;;;5054119;28;20318;-67
2021/12/14 00:57:40;;;;;;;9.63;2.60;;;25.30;99.90;;;;;;5072030;28;20691;-67
2021/12/14 01:00:14;;;;;;;11.10;3.17;;;25.20;99.90;;;;;;5072443;28;20258;-66
2021/12/14 01:02:43;;;;;;;15.77;3.10;;;25.20;99.90;;;;;;5072051;28;20175;-69
2021/12/14 01:05:15;;;;;;;20.17;3.97;;;25.50;99.90;;;;;;5071830;28;20203;-67
2021/12/14 01:07:43;;;;;;;10.67;2.63;;;25.90;99.90;;;;;;5072050;28;20195;-67
2021/12/14 01:10:21;;;;;;;11.57;3.00;;;26.10;99.90;;;;;;5072897;28;20186;-67
2021/12/14 01:12:53;;;;;;;10.20;2.70;;;26.30;99.90;;;;;;5072036;28;20195;-69
2021/12/14 01:15:29;;;;;;;10.13;2.40;;;26.50;99.90;;;;;;5072013;28;20316;-67
2021/12/14 01:21:00;;;;;;;8.83;2.37;;;26.50;99.90;;;;;;5072258;28;20268;-69
2021/12/14 01:23:33;;;;;;;10.10;2.90;;;25.90;99.90;;;;;;5054385;28;20910;-69
2021/12/14 01:26:08;;;;;;;10.80;2.00;;;25.60;99.90;;;;;;5071808;28;20222;-70
2021/12/14 01:28:37;;;;;;;8.47;2.20;;;25.70;99.90;;;;;;5071582;28;20167;-69
2021/12/14 01:31:27;;;;;;;12.83;2.63;;;25.70;99.90;;;;;;5063427;28;20676;-67
2021/12/14 01:33:59;;;;;;;5.97;2.20;;;25.70;99.90;;;;;;5070401;28;20718;-69
2021/12/14 01:36:38;;;;;;;7.07;2.20;;;26.00;99.90;;;;;;5069317;28;20178;-70
2021/12/14 01:42:03;;;;;;;10.73;2.13;;;26.30;99.90;;;;;;5068059;28;20606;-69
2021/12/14 01:44:35;;;;;;;9.03;2.43;;;26.40;99.90;;;;;;5068667;28;20527;-70
2021/12/14 01:47:10;;;;;;;8.70;1.77;;;26.40;99.90;;;;;;5068943;28;20175;-70
2021/12/14 01:49:37;;;;;;;5.90;1.80;;;26.10;99.90;;;;;;5069935;28;20197;-70
2021/12/14 01:52:12;;;;;;;8.17;1.80;;;26.60;99.90;;;;;;5070192;28;20176;-70
2021/12/14 01:54:44;;;;;;;10.17;1.80;;;26.80;99.90;;;;;;5066906;28;20236;-68
2021/12/14 01:57:15;;;;;;;8.17;1.87;;;26.90;99.90;;;;;;5070020;28;20186;-69
2021/12/14 01:59:46;;;;;;;6.87;1.83;;;27.20;99.90;;;;;;5064508;28;20290;-68
2021/12/14 02:02:29;;;;;;;8.57;1.93;;;26.60;99.90;;;;;;5070909;28;20176;-67
2021/12/14 02:04:57;;;;;;;8.43;2.00;;;26.40;99.90;;;;;;5070266;28;20219;-70
2021/12/14 02:07:27;;;;;;;7.20;2.00;;;26.60;99.90;;;;;;5070082;28;20187;-68
2021/12/14 02:10:02;;;;;;;5.13;1.63;;;26.40;99.90;;;;;;5070221;28;20546;-70
2021/12/14 02:12:31;;;;;;;10.20;1.83;;;26.70;99.90;;;;;;5070680;28;20322;-67
2021/12/14 02:15:15;;;;;;;7.03;1.50;;;27.10;99.90;;;;;;5070544;28;20206;-71
2021/12/14 02:17:43;;;;;;;6.07;1.60;;;27.10;99.90;;;;;;5070107;28;20199;-67
2021/12/14 02:20:13;;;;;;;5.50;2.07;;;27.00;99.90;;;;;;5071038;28;20280;-67
2021/12/14 02:22:41;;;;;;;4.73;1.27;;;26.90;99.90;;;;;;5070699;28;20175;-67
2021/12/14 02:25:10;;;;;;;8.63;1.60;;;27.10;99.90;;;;;;5069742;28;20215;-71
2021/12/14 02:27:44;;;;;;;9.30;1.70;;;27.20;99.90;;;;;;5051884;28;20187;-70
2021/12/14 02:30:17;;;;;;;5.20;1.40;;;26.80;99.90;;;;;;5070955;28;20175;-70
2021/12/14 02:32:45;;;;;;;5.00;1.40;;;27.10;99.90;;;;;;5070012;28;20708;-71
2021/12/14 02:35:17;;;;;;;8.03;1.70;;;27.20;99.90;;;;;;5071819;28;20668;-70
2021/12/14 02:37:50;;;;;;;9.23;1.83;;;27.20;99.90;;;;;;5071249;28;20194;-69
2021/12/14 02:43:35;;;;;;;6.73;1.50;;;26.50;99.90;;;;;;5069966;28;20213;-69
2021/12/14 02:46:21;;;;;;;3.90;1.23;;;26.60;99.90;;;;;;5067904;28;20215;-69
2021/12/14 02:48:55;;;;;;;11.03;1.80;;;27.00;99.90;;;;;;5070725;28;20232;-68
2021/12/14 02:51:54;;;;;;;4.90;1.57;;;27.20;99.90;;;;;;5071299;28;20574;-70
2021/12/14 02:54:25;;;;;;;7.30;1.43;;;27.10;99.90;;;;;;5068297;28;20276;-70
2021/12/14 02:57:01;;;;;;;9.07;2.30;;;27.10;99.90;;;;;;5069998;28;20187;-70
2021/12/14 02:59:32;;;;;;;10.03;1.60;;;27.10;99.90;;;;;;5071404;28;20597;-70
2021/12/14 03:02:04;;;;;;;8.97;1.43;;;27.20;99.90;;;;;;5071450;28;20207;-70
2021/12/14 03:04:37;;;;;;;6.30;1.60;;;27.10;99.80;;;;;;5070257;28;20606;-70
2021/12/14 03:07:05;;;;;;;5.03;1.37;;;27.60;99.90;;;;;;5065130;28;20224;-69
2021/12/14 03:09:56;;;;;;;5.17;1.37;;;27.50;99.50;;;;;;5065285;28;20736;-68
2021/12/14 03:12:43;;;;;;;6.07;1.67;;;27.50;99.80;;;;;;5068744;28;20641;-67
2021/12/14 03:15:19;;;;;;;5.20;1.60;;;27.30;99.10;;;;;;5069029;28;20207;-69
2021/12/14 03:17:50;;;;;;;7.30;1.60;;;27.60;99.40;;;;;;5070681;28;20182;-68
2021/12/14 03:20:22;;;;;;;8.00;1.60;;;28.00;99.10;;;;;;5067544;28;20599;-67
2021/12/14 03:23:01;;;;;;;9.03;1.43;;;28.10;98.50;;;;;;5069658;28;20179;-66
2021/12/14 03:25:31;;;;;;;5.33;1.47;;;27.50;99.00;;;;;;5067772;28;20242;-68
2021/12/14 03:27:59;;;;;;;4.80;1.57;;;27.00;99.90;;;;;;5066506;28;20179;-68
2021/12/14 03:30:26;;;;;;;8.00;1.80;;;27.50;99.50;;;;;;5070731;28;20183;-68
2021/12/14 03:33:01;;;;;;;5.50;1.37;;;27.30;99.00;;;;;;5068259;28;20258;-70
2021/12/14 03:35:45;;;;;;;5.03;1.50;;;28.00;99.50;;;;;;5067385;28;20550;-67
2021/12/14 03:38:17;;;;;;;7.70;1.17;;;28.00;98.20;;;;;;5067375;28;20290;-69
2021/12/14 03:40:53;;;;;;;7.20;1.60;;;28.50;98.60;;;;;;5051080;28;20612;-67
2021/12/14 03:43:22;;;;;;;5.60;1.63;;;28.20;97.80;;;;;;5063431;28;20249;-67
2021/12/14 03:45:50;;;;;;;5.60;2.17;;;27.70;98.80;;;;;;5068196;28;20215;-67
2021/12/14 03:48:20;;;;;;;7.17;1.80;;;28.10;99.00;;;;;;5068703;28;20185;-68
2021/12/14 03:50:47;;;;;;;7.97;1.60;;;28.20;98.20;;;;;;5069323;28;20276;-68
2021/12/14 03:53:17;;;;;;;8.27;1.70;;;28.00;98.40;;;;;;5065064;28;20175;-70
2021/12/14 03:55:49;;;;;;;5.83;1.80;;;28.80;98.00;;;;;;5065755;28;20218;-70
2021/12/14 03:58:22;;;;;;;7.00;1.73;;;28.60;97.60;;;;;;5068390;28;20180;-68
2021/12/14 04:00:56;;;;;;;5.97;1.67;;;27.70;98.50;;;;;;5068742;28;20202;-69
2021/12/14 04:03:27;;;;;;;7.97;1.77;;;27.60;99.00;;;;;;5068720;28;20324;-71
2021/12/14 04:05:54;;;;;;;10.03;1.80;;;27.60;98.50;;;;;;5064619;28;20214;-69
2021/12/14 04:08:24;;;;;;;4.90;1.47;;;27.40;99.10;;;;;;5068532;28;20186;-70
2021/12/14 04:10:55;;;;;;;8.30;1.70;;;27.30;98.90;;;;;;5070838;28;20186;-69
2021/12/14 04:13:27;;;;;;;5.53;1.70;;;27.40;99.40;;;;;;5054903;28;20545;-69
2021/12/14 04:15:55;;;;;;;4.07;1.20;;;28.50;98.60;;;;;;5067370;28;20188;-71
2021/12/14 04:18:24;;;;;;;8.23;1.90;;;29.30;97.70;;;;;;5070365;28;20179;-69
2021/12/14 04:20:55;;;;;;;7.00;1.67;;;30.00;96.60;;;;;;5064441;28;20193;-67
2021/12/14 04:23:26;;;;;;;10.07;1.70;;;29.00;97.30;;;;;;5072388;28;20282;-67
2021/12/14 04:25:57;;;;;;;5.53;1.40;;;28.60;97.70;;;;;;5054026;28;20578;-67
2021/12/14 04:28:29;;;;;;;13.93;2.00;;;28.30;97.60;;;;;;5072880;28;20698;-68
2021/12/14 04:30:57;;;;;;;8.77;1.47;;;28.20;97.80;;;;;;5068812;28;20665;-68
2021/12/14 04:33:31;;;;;;;6.80;1.60;;;28.50;98.20;;;;;;5072947;28;20284;-68
2021/12/14 04:36:03;;;;;;;6.27;1.43;;;28.50;98.10;;;;;;5056446;28;20732;-69
2021/12/14 04:38:36;;;;;;;8.57;2.07;;;28.40;98.50;;;;;;5071464;28;20179;-67
2021/12/14 04:52:15;;;;;;;7.75;1.60;;;29.90;96.60;;;;;;5073539;28;20218;-67
2021/12/14 04:54:59;;;;;;;5.07;1.67;;;30.30;96.10;;;;;;5070465;28;20250;-67
2021/12/14 04:57:31;;;;;;;8.47;1.70;;;30.50;96.10;;;;;;5072532;28;21406;-67
2021/12/14 05:00:25;;;;;;;7.47;1.70;;;30.00;96.00;;;;;;5071945;28;20267;-68
2021/12/14 05:02:56;;;;;;;5.97;1.65;;;30.20;95.70;;;;;;5072906;28;20274;-69
2021/12/14 05:05:39;;;;;;;5.40;1.40;;;29.50;96.10;;;;;;5069310;28;20212;-68
2021/12/14 05:11:04;;;;;;;7.33;1.43;;;29.50;96.20;;;;;;5069407;28;20209;-69
2021/12/14 05:13:45;;;;;;;8.10;1.50;;;30.10;96.00;;;;;;5070354;28;20195;-67
2021/12/14 05:16:25;;;;;;;5.75;1.38;;;30.00;95.20;;;;;;5070909;28;20842;-68
2021/12/14 05:19:08;;;;;;;5.88;1.40;;;30.90;95.00;;;;;;5072761;28;20708;-68
2021/12/14 05:21:41;;;;;;;4.75;1.45;;;31.20;94.30;;;;;;5069535;28;20748;-67
2021/12/14 05:24:13;;;;;;;4.50;1.52;;;31.00;94.20;;;;;;5072174;28;20217;-67
2021/12/14 05:26:43;;;;;;;11.10;1.95;;;30.90;94.50;;;;;;5071972;28;20300;-68
2021/12/14 05:29:11;;;;;;;8.60;1.75;;;31.10;94.20;;;;;;5072648;28;20181;-66
2021/12/14 05:31:44;;;;;;;7.32;1.42;;;30.30;94.60;;;;;;5074589;28;20191;-68
2021/12/14 05:34:12;;;;;;;6.32;1.63;;;30.00;95.30;;;;;;5071855;28;20626;-67
2021/12/14 05:36:45;;;;;;;7.95;1.23;;;30.20;94.60;;;;;;5070117;28;20324;-68
2021/12/14 05:39:37;;;;;;;5.68;1.65;;;30.70;94.30;;;;;;5071025;28;20186;-66
2021/12/14 05:44:44;;;;;;;5.67;1.40;;;29.40;95.50;;;;;;5072951;28;20537;-68
2021/12/14 05:47:16;;;;;;;7.90;2.07;;;29.00;95.80;;;;;;5066540;28;20661;-66
2021/12/14 05:49:48;;;;;;;9.57;1.73;;;29.20;95.80;;;;;;5052668;28;20251;-67
2021/12/14 05:52:33;;;;;;;5.73;1.67;;;28.20;96.50;;;;;;5071907;28;20179;-67
2021/12/14 05:55:00;;;;;;;4.40;1.47;;;27.70;97.40;;;;;;5067503;28;20639;-68
2021/12/14 05:57:28;;;;;;;8.63;1.67;;;27.40;97.60;;;;;;5071678;28;20179;-68
2021/12/14 05:59:56;;;;;;;7.90;1.73;;;27.30;98.20;;;;;;5074675;28;20183;-68
2021/12/14 06:02:24;;;;;;;9.23;1.57;;;27.60;97.50;;;;;;5069226;28;20583;-67
2021/12/14 06:04:54;;;;;;;6.90;1.83;;;27.40;97.60;;;;;;5068726;28;20197;-68
2021/12/14 06:07:22;;;;;;;9.50;1.80;;;27.50;98.10;;;;;;5072770;28;20183;-67
2021/12/14 06:09:51;;;;;;;6.83;1.70;;;27.90;97.70;;;;;;5068665;28;20184;-70
2021/12/14 06:12:24;;;;;;;7.00;1.63;;;28.00;97.70;;;;;;5064505;28;20667;-68
2021/12/14 06:14:59;;;;;;;8.53;1.63;;;27.70;97.50;;;;;;5067131;28;20209;-67
2021/12/14 06:17:33;;;;;;;9.90;1.87;;;27.50;97.50;;;;;;5070152;28;20647;-69
2021/12/14 06:20:09;;;;;;;5.83;1.60;;;28.20;97.40;;;;;;5070227;28;20662;-69
2021/12/14 06:22:37;;;;;;;7.97;2.07;;;28.80;96.90;;;;;;5070639;28;20628;-68
2021/12/14 06:25:08;;;;;;;6.73;2.17;;;28.10;97.00;;;;;;5071320;28;20537;-69
2021/12/14 06:27:38;;;;;;;7.73;1.87;;;28.30;97.30;;;;;;5071909;28;20248;-69
2021/12/14 06:30:19;;;;;;;7.33;1.40;;;28.90;96.50;;;;;;5072159;28;20218;-70
2021/12/14 06:32:52;;;;;;;9.17;1.60;;;28.80;96.20;;;;;;5071736;28;20191;-71
2021/12/14 06:35:35;;;;;;;10.35;1.92;;;29.10;96.10;;;;;;5068358;28;21549;-72
2021/12/14 06:38:30;;;;;;;9.00;2.00;;;29.40;95.50;;;;;;5068785;28;20564;-70
2021/12/14 06:41:21;;;;;;;13.07;2.27;;;29.20;95.70;;;;;;5068499;28;20175;-67
2021/12/14 06:43:59;;;;;;;6.93;1.57;;;29.10;96.00;;;;;;5056366;28;20175;-69
2021/12/14 06:46:36;;;;;;;6.63;1.50;;;29.10;96.40;;;;;;5068606;28;20206;-70
2021/12/14 06:49:09;;;;;;;7.55;1.65;;;29.80;95.40;;;;;;5071722;28;20179;-68
2021/12/14 06:51:46;;;;;;;5.47;1.42;;;29.90;95.00;;;;;;5072515;28;20266;-68
2021/12/14 06:54:25;;;;;;;4.50;1.57;;;29.10;96.10;;;;;;5067768;28;20221;-68
2021/12/14 06:57:01;;;;;;;10.02;1.75;;;29.70;95.50;;;;;;5070259;28;20221;-71
2021/12/14 06:59:29;;;;;;;6.65;1.42;;;29.80;95.50;;;;;;5074024;28;20369;-68
2021/12/14 07:02:05;;;;;;;4.95;1.50;;;29.80;95.00;;;;;;5073415;28;20210;-67
2021/12/14 07:04:36;;;;;;;6.07;1.92;;;29.20;95.40;;;;;;5071913;28;20195;-69
2021/12/14 07:07:08;;;;;;;8.10;1.67;;;29.50;95.50;;;;;;5068467;28;20617;-68
2021/12/14 07:09:46;;;;;;;7.22;1.70;;;29.40;95.50;;;;;;5071550;28;20230;-69
2021/12/14 07:12:18;;;;;;;5.40;1.50;;;29.50;95.20;;;;;;5069976;28;20240;-69
2021/12/14 07:14:53;;;;;;;7.80;1.73;;;28.80;95.70;;;;;;5071679;28;20266;-69
2021/12/14 07:17:28;;;;;;;6.83;1.70;;;28.40;95.70;;;;;;5071831;28;20177;-68
2021/12/14 07:20:08;;;;;;;8.20;1.97;;;27.40;97.30;;;;;;5069833;28;20186;-68
2021/12/14 07:22:48;;;;;;;4.97;1.50;;;26.80;97.70;;;;;;5072831;28;20530;-69
2021/12/14 07:25:24;;;;;;;8.70;2.13;;;26.60;97.80;;;;;;5070735;28;20320;-68
2021/12/14 07:27:55;;;;;;;5.53;1.70;;;26.50;98.40;;;;;;5071019;28;20186;-68
2021/12/14 07:30:36;;;;;;;8.17;1.73;;;26.30;99.00;;;;;;5068348;28;20190;-68
2021/12/14 07:33:43;;;;;;;9.27;2.07;;;26.10;99.20;;;;;;5069014;28;20240;-67
2021/12/14 07:36:13;;;;;;;5.73;1.80;;;25.80;99.60;;;;;;5071295;28;20245;-69
2021/12/14 07:38:54;;;;;;;9.13;2.00;;;25.10;99.90;;;;;;5071225;28;20170;-67
2021/12/14 07:41:36;;;;;;;12.57;2.50;;;24.80;99.90;;;;;;5070812;28;20528;-67
2021/12/14 07:44:12;;;;;;;6.27;1.40;;;24.90;99.90;;;;;;5072192;28;20171;-67
2021/12/14 07:47:05;;;;;;;13.23;1.97;;;24.70;99.90;;;;;;5074087;28;20206;-68
2021/12/14 07:49:46;;;;;;;7.57;1.97;;;24.50;99.90;;;;;;5057052;28;20203;-68
2021/12/14 07:52:21;;;;;;;9.50;2.00;;;24.20;99.90;;;;;;5073020;28;20648;-70
2021/12/14 07:54:52;;;;;;;8.77;1.97;;;24.10;99.90;;;;;;5080668;28;20222;-67
2021/12/14 07:57:25;;;;;;;9.37;2.33;;;23.90;99.90;;;;;;5076160;28;20694;-67
2021/12/14 08:00:15;;;;;;;9.27;1.70;;;24.10;99.90;;;;;;5071889;28;20617;-67
2021/12/14 08:02:46;;;;;;;11.90;2.37;;;24.20;99.90;;;;;;5073310;28;20207;-67
2021/12/14 08:05:24;;;;;;;6.17;2.00;;;24.10;99.90;;;;;;5075056;28;20308;-68
2021/12/14 08:08:00;;;;;;;9.37;2.50;;;23.80;99.90;;;;;;5074825;28;20210;-68
2021/12/14 08:10:33;;;;;;;8.87;2.80;;;23.70;99.90;;;;;;5074768;28;20641;-67
2021/12/14 08:13:13;;;;;;;12.53;3.43;;;23.70;99.90;;;;;;5069400;28;20171;-67
2021/12/14 08:15:50;;;;;;;11.37;4.67;;;23.40;99.90;;;;;;5073485;28;20175;-67
2021/12/14 08:18:20;;;;;;;12.07;3.30;;;23.30;99.90;;;;;;5073832;28;20186;-69
2021/12/14 08:20:57;;;;;;;10.20;2.33;;;23.40;99.90;;;;;;5073165;28;20659;-69
2021/12/14 08:23:55;;;;;;;10.87;2.30;;;23.40;99.90;;;;;;5072894;28;20175;-69
2021/12/14 08:26:44;;;;;;;12.20;2.70;;;23.40;99.90;;;;;;5069966;28;20567;-68
2021/12/14 08:29:22;;;;;;;10.60;1.93;;;23.10;99.90;;;;;;5076259;28;20603;-68
2021/12/14 08:32:10;;;;;;;11.00;2.60;;;22.90;99.90;;;;;;5077730;28;20175;-68
2021/12/14 08:34:45;;;;;;;7.47;2.10;;;22.80;99.90;;;;;;5073449;28;20171;-67
2021/12/14 08:37:34;;;;;;;8.63;1.90;;;22.70;99.90;;;;;;5073617;28;20641;-68
2021/12/14 08:40:14;;;;;;;8.90;1.80;;;22.60;99.90;;;;;;5074514;28;20213;-67
2021/12/14 08:43:19;;;;;;;12.93;2.03;;;22.70;99.90;;;;;;5074226;28;20175;-68
2021/12/14 08:45:58;;;;;;;9.43;2.43;;;22.60;99.90;;;;;;5075393;28;21579;-67
2021/12/14 08:48:31;;;;;;;6.43;1.90;;;22.40;99.90;;;;;;5074408;28;20171;-70
2021/12/14 08:51:13;;;;;;;10.27;2.20;;;22.30;99.90;;;;;;5070247;28;20787;-69
2021/12/14 08:53:46;;;;;;;10.73;1.97;;;22.00;99.90;;;;;;4977322;28;2812424;-69
2021/12/14 08:56:16;;;;;;;9.83;2.63;;;22.10;99.90;;;;;;5074174;28;20180;-67
2021/12/14 08:58:44;;;;;;;15.13;6.87;;;22.10;99.90;;;;;;5073516;28;20175;-69
2021/12/14 09:01:15;;;;;;;8.40;2.63;;;22.10;99.90;;;;;;5073809;28;20199;-68
2021/12/14 09:03:55;;;;;;;12.20;2.20;;;22.00;99.90;;;;;;5068907;28;20268;-71
2021/12/14 09:06:28;;;;;;;7.23;1.73;;;22.00;99.90;;;;;;5071360;28;20217;-71
2021/12/14 09:09:00;;;;;;;12.17;2.73;;;22.00;99.90;;;;;;5073441;28;20189;-71
2021/12/14 09:11:31;;;;;;;13.43;2.80;;;21.90;99.90;;;;;;5073863;28;20194;-67
2021/12/14 09:13:59;;;;;;;8.20;1.97;;;21.80;99.90;;;;;;5074178;28;20179;-67
2021/12/14 09:16:30;;;;;;;10.50;2.17;;;21.70;99.90;;;;;;5076636;28;20178;-69
2021/12/14 09:19:06;;;;;;;11.40;3.90;;;21.70;99.90;;;;;;5072454;28;20683;-69
2021/12/14 09:21:38;;;;;;;25.73;15.03;;;21.60;99.90;;;;;;5075409;28;20200;-68
2021/12/14 09:24:16;;;;;;;19.33;8.47;;;21.50;99.90;;;;;;5073450;28;20181;-68
2021/12/14 09:26:49;;;;;;;5.83;2.33;;;21.40;99.90;;;;;;5072433;28;20272;-68
2021/12/14 09:29:21;;;;;;;11.47;2.37;;;21.40;99.90;;;;;;5078523;28;20174;-67
2021/12/14 09:31:52;;;;;;;7.97;1.80;;;21.40;99.90;;;;;;5075203;28;20214;-67
2021/12/14 09:34:24;;;;;;;12.50;1.90;;;21.40;99.90;;;;;;5073597;28;20199;-67
2021/12/14 09:36:53;;;;;;;10.67;2.30;;;21.30;99.90;;;;;;5072456;28;20275;-67
2021/12/14 09:39:33;;;;;;;12.30;2.57;;;21.30;99.90;;;;;;5078471;28;20258;-67
2021/12/14 09:42:04;;;;;;;11.13;1.97;;;21.40;99.90;;;;;;5072975;28;20680;-67
2021/12/14 09:44:33;;;;;;;10.30;2.03;;;21.40;99.90;;;;;;5077106;28;20236;-66
2021/12/14 09:47:09;;;;;;;7.70;1.83;;;21.40;99.90;;;;;;5073842;28;20314;-67
2021/12/14 09:49:38;;;;;;;13.83;3.20;;;21.40;99.90;;;;;;5071784;28;20722;-68
2021/12/14 09:52:12;;;;;;;7.97;1.87;;;21.30;99.90;;;;;;5073992;28;20211;-67
2021/12/14 09:54:41;;;;;;;8.70;2.20;;;21.20;99.90;;;;;;5074993;28;20215;-66
2021/12/14 09:57:13;;;;;;;10.77;2.23;;;21.20;99.90;;;;;;5073618;28;20182;-66
2021/12/14 09:59:42;;;;;;;10.57;2.77;;;21.20;99.90;;;;;;5073206;28;20171;-66
2021/12/14 10:02:17;;;;;;;6.93;1.90;;;21.10;99.90;;;;;;5071683;28;20183;-67
2021/12/14 10:04:50;;;;;;;11.73;2.70;;;21.10;99.90;;;;;;5072508;28;20629;-67
2021/12/14 10:07:18;;;;;;;8.30;2.50;;;21.00;99.90;;;;;;5070464;28;20198;-66
2021/12/14 10:09:48;;;;;;;14.40;3.23;;;21.00;99.90;;;;;;5072443;28;20191;-68
2021/12/14 10:14:53;;;;;;;11.63;2.50;;;21.00;99.90;;;;;;5076334;28;20183;-67
2021/12/14 10:17:26;;;;;;;10.87;1.80;;;21.00;99.90;;;;;;5069369;28;20248;-66
2021/12/14 10:19:54;;;;;;;10.83;2.23;;;20.90;99.90;;;;;;5069284;28;20187;-66
2021/12/14 10:22:27;;;;;;;12.03;2.30;;;20.90;99.90;;;;;;5070643;28;20637;-66
2021/12/14 10:24:58;;;;;;;16.17;2.37;;;21.00;99.90;;;;;;5072545;28;20183;-67
2021/12/14 10:27:29;;;;;;;7.73;2.60;;;21.00;99.90;;;;;;5067989;28;20608;-67
2021/12/14 10:29:59;;;;;;;11.80;2.43;;;20.90;99.90;;;;;;5072468;28;20182;-67
2021/12/14 10:32:31;;;;;;;12.03;2.20;;;20.80;99.90;;;;;;5072448;28;20211;-67
2021/12/14 10:35:03;;;;;;;8.33;2.20;;;20.80;99.90;;;;;;5072133;28;20270;-66
2021/12/14 10:43:24;;;;;;;10.43;2.73;;;20.80;99.90;;;;;;5072545;28;20640;-67
2021/12/14 10:45:55;;;;;;;6.80;2.40;;;20.80;99.90;;;;;;5069540;28;20207;-67
2021/12/14 10:48:30;;;;;;;11.73;2.50;;;20.70;99.90;;;;;;5073601;28;21221;-66
2021/12/14 10:51:00;;;;;;;10.73;2.73;;;20.70;99.90;;;;;;5074889;28;20194;-66
2021/12/14 10:53:28;;;;;;;10.27;2.70;;;20.60;99.90;;;;;;5072102;28;20697;-66
2021/12/14 10:56:18;;;;;;;13.27;3.00;;;20.60;99.90;;;;;;5075506;28;20286;-67
2021/12/14 10:58:54;;;;;;;13.17;2.67;;;20.50;99.90;;;;;;5070917;28;20197;-66
2021/12/14 11:01:29;;;;;;;11.77;2.80;;;20.50;99.90;;;;;;5072120;28;20265;-67
2021/12/14 11:04:01;;;;;;;11.80;2.53;;;20.40;99.90;;;;;;5073002;28;20519;-67
2021/12/14 11:06:31;;;;;;;8.30;1.97;;;20.40;99.90;;;;;;5075035;28;20226;-67
2021/12/14 11:11:51;;;;;;;11.17;2.70;;;20.30;99.90;;;;;;5070240;28;20176;-67
2021/12/14 11:14:23;;;;;;;10.87;1.97;;;20.30;99.90;;;;;;5071910;28;20175;-68
2021/12/14 11:19:46;;;;;;;16.13;2.70;;;20.30;99.90;;;;;;5070299;28;20271;-66
2021/12/14 11:22:24;;;;;;;9.00;2.73;;;20.20;99.90;;;;;;5068946;28;20645;-68
2021/12/14 11:25:01;;;;;;;15.60;2.50;;;20.20;99.90;;;;;;5070739;28;20183;-67
2021/12/14 11:27:41;;;;;;;11.40;2.50;;;20.20;99.90;;;;;;5068337;28;20931;-69
2021/12/14 11:30:15;;;;;;;10.33;2.50;;;20.20;99.90;;;;;;5072035;28;20201;-69
2021/12/14 11:32:43;;;;;;;4.93;1.90;;;20.00;99.90;;;;;;5071561;28;20229;-67
2021/12/14 11:35:27;;;;;;;9.70;2.70;;;20.00;99.90;;;;;;5070740;28;20186;-66
2021/12/14 11:37:57;;;;;;;10.50;2.37;;;20.10;99.90;;;;;;5064594;28;20691;-69
2021/12/14 11:40:27;;;;;;;12.47;2.60;;;20.10;99.90;;;;;;5071105;28;20542;-68
2021/12/14 11:43:14;;;;;;;11.27;2.77;;;20.00;99.90;;;;;;5069432;28;20573;-66
2021/12/14 11:45:42;;;;;;;12.37;2.93;;;19.90;99.90;;;;;;5070033;28;20221;-68
2021/12/14 11:48:10;;;;;;;17.73;3.03;;;19.90;99.90;;;;;;5071253;28;20260;-67
2021/12/14 11:50:46;;;;;;;4.83;1.90;;;19.90;99.90;;;;;;5069249;28;20233;-66
2021/12/14 11:53:18;;;;;;;8.60;2.07;;;19.90;99.90;;;;;;5068612;28;20236;-70
2021/12/14 11:55:57;;;;;;;9.43;2.97;;;19.90;99.90;;;;;;5070466;28;20230;-66
2021/12/14 11:58:31;;;;;;;9.90;2.50;;;20.00;99.90;;;;;;5071296;28;20190;-66
2021/12/14 12:01:28;;;;;;;11.73;2.80;;;20.00;99.90;;;;;;5068655;28;20240;-69
2021/12/14 12:04:00;;;;;;;10.20;2.50;;;20.00;99.90;;;;;;5071387;28;20305;-69
2021/12/14 12:09:49;;;;;;;8.97;2.13;;;19.90;99.90;;;;;;5071337;28;20207;-66
2021/12/14 12:12:29;;;;;;;7.37;2.20;;;19.90;99.90;;;;;;5070844;28;20575;-66
2021/12/14 12:15:15;;;;;;;12.13;2.77;;;19.90;99.90;;;;;;5065142;28;20190;-67
2021/12/14 12:17:59;;;;;;;10.43;2.40;;;19.80;99.90;;;;;;5070807;28;20273;-66
2021/12/14 12:20:41;;;;;;;9.87;2.53;;;19.80;99.90;;;;;;5052901;28;20187;-66
2021/12/14 12:23:13;;;;;;;8.97;2.30;;;19.70;99.90;;;;;;5069671;28;20183;-66
2021/12/14 12:25:42;;;;;;;8.03;2.33;;;19.70;99.90;;;;;;5070164;28;20223;-66
2021/12/14 12:28:27;;;;;;;10.10;2.47;;;19.70;99.90;;;;;;5068040;28;20195;-67
2021/12/14 12:31:16;;;;;;;7.93;2.23;;;19.70;99.90;;;;;;5070885;28;20198;-67
2021/12/14 12:33:58;;;;;;;10.53;2.30;;;19.70;99.90;;;;;;5074597;28;20171;-66
2021/12/14 12:36:35;;;;;;;12.00;2.73;;;19.70;99.90;;;;;;5071807;28;20179;-66
2021/12/14 12:39:11;;;;;;;9.90;1.93;;;19.60;99.90;;;;;;5074693;28;20673;-67
2021/12/14 12:41:48;;;;;;;7.17;1.80;;;19.50;99.90;;;;;;5074135;28;20187;-66
2021/12/14 12:44:26;;;;;;;6.30;2.23;;;19.50;99.90;;;;;;5074743;28;20206;-66
2021/12/14 12:46:58;;;;;;;11.93;2.27;;;19.50;99.90;;;;;;5071054;28;20221;-67
2021/12/14 12:49:47;;;;;;;12.20;2.80;;;19.50;99.90;;;;;;5074338;28;20710;-66
2021/12/14 12:52:20;;;;;;;8.63;2.33;;;19.50;99.90;;;;;;5073840;28;20195;-66
2021/12/14 12:54:56;;;;;;;7.40;2.23;;;19.50;99.90;;;;;;5074157;28;20227;-66
2021/12/14 12:57:36;;;;;;;9.83;2.37;;;19.50;99.90;;;;;;5074224;28;20516;-65
2021/12/14 13:00:34;;;;;;;7.77;2.53;;;19.50;99.90;;;;;;5072926;28;20182;-67
2021/12/14 13:03:13;;;;;;;6.47;2.10;;;19.40;99.90;;;;;;5067820;28;20700;-66
2021/12/14 13:05:49;;;;;;;10.43;2.43;;;19.30;99.90;;;;;;5073389;28;21420;-67
2021/12/14 13:08:27;;;;;;;11.03;2.07;;;19.30;99.90;;;;;;5074468;28;20185;-67
2021/12/14 13:11:14;;;;;;;7.40;2.07;;;19.30;99.90;;;;;;5069842;28;20183;-68
2021/12/14 13:13:51;;;;;;;10.83;2.20;;;19.30;99.90;;;;;;5073808;28;20291;-67
2021/12/14 13:16:20;;;;;;;7.07;2.30;;;19.30;99.90;;;;;;5074170;28;20179;-67
2021/12/14 13:19:02;;;;;;;13.40;3.17;;;19.30;99.90;;;;;;5071976;28;20718;-67
2021/12/14 13:22:00;;;;;;;7.03;2.30;;;19.30;99.90;;;;;;5073629;28;20645;-66
2021/12/14 13:24:29;;;;;;;9.60;2.40;;;19.30;99.90;;;;;;5073079;28;20193;-67
2021/12/14 13:27:13;;;;;;;9.10;2.17;;;19.20;99.90;;;;;;5073366;28;20258;-67
2021/12/14 13:29:46;;;;;;;9.47;2.40;;;19.20;99.90;;;;;;5073117;28;20541;-67
2021/12/14 13:32:33;;;;;;;7.23;2.53;;;19.20;99.90;;;;;;5073214;28;20702;-67
2021/12/14 13:35:09;;;;;;;9.03;2.20;;;19.10;99.90;;;;;;5067595;28;20183;-67
2021/12/14 13:37:45;;;;;;;6.17;2.23;;;19.10;99.90;;;;;;5072413;28;20179;-66
2021/12/14 13:40:23;;;;;;;7.87;2.83;;;19.10;99.90;;;;;;5072812;28;20183;-66
2021/12/14 13:43:11;;;;;;;8.17;2.03;;;19.10;99.90;;;;;;5073597;28;20173;-70
2021/12/14 13:45:44;;;;;;;11.40;2.70;;;19.10;99.90;;;;;;5072833;28;20203;-67
2021/12/14 13:48:16;;;;;;;7.40;2.90;;;19.10;99.90;;;;;;5072762;28;20646;-67
2021/12/14 13:50:50;;;;;;;8.30;2.43;;;19.00;99.90;;;;;;5072749;28;20225;-67
2021/12/14 13:53:19;;;;;;;13.65;3.65;;;19.10;99.90;;;;;;5072188;28;20794;-67
2021/12/14 13:55:51;;;;;;;8.70;2.90;;;19.10;99.90;;;;;;5072627;28;20223;-67
2021/12/14 13:58:31;;;;;;;11.87;2.73;;;19.20;99.90;;;;;;5069562;28;20215;-66
2021/12/14 14:01:13;;;;;;;13.33;2.77;;;19.40;99.90;;;;;;5068909;28;20185;-67
2021/12/14 14:03:47;;;;;;;8.13;2.40;;;19.60;99.90;;;;;;5072589;28;20290;-67
2021/12/14 14:06:18;;;;;;;8.23;1.90;;;19.90;99.90;;;;;;5073078;28;20680;-66
2021/12/14 14:08:50;;;;;;;15.87;2.67;;;20.00;99.90;;;;;;5073007;28;20187;-70